Port Alexander, AK

11:53 PM AKDT on April 26, 2017 (GMT -0800)
Kake | | Change Station

Elev 171 ft 56.96 °N, 133.91 °W | Updated 57 minutes ago

Overcast
Overcast
44 °F
Feels Like 38 °F
N
12
Wind Variable Wind from SSE
Gusts 16 mph

Today
High -- | Low -- °F
--% Chance of Precip.
Yesterday
High -- | Low -- °F
Precip. -- in
Pressure 29.69 in
Visibility 10.0 miles
Clouds
Windchill 38 °F
Dew Point 41 °F
Humidity 89%
Rainfall 0.16 in
Snow Depth Not available.
5:24 AM 8:29 PM
New Moon, 1% visible
METAR PAFE 270656Z AUTO 16010G14KT 10SM -RA 07/05 A2965 RMK AO2 SLP053 P0002 T00670050 $
Pressure 29.69 in
Visibility 10.0 miles
Clouds
Windchill 38 °F
Dew Point 41 °F
Humidity 89%
Rainfall 0.16 in
Snow Depth Not available.
5:24 AM 8:29 PM
New Moon, 1% visible
METAR PAFE 270656Z AUTO 16010G14KT 10SM -RA 07/05 A2965 RMK AO2 SLP053 P0002 T00670050 $

Get Severe Weather Alerts

Thanks for signing up!

Be on the lookout for a verification email in your inbox.

You'll start receiving the daily forecast at 8 AM.

×

10-Day Weather Forecast

Almanac

Astronomy

Apr. 26, 2017 Rise Set
Actual Time
Civil Twilight
Nautical Twilight
Astronomical Twilight
Moon
Length of Visible Light
Length of Day
Tomorrow will be .
, % of the Moon is Illuminated

Today's Extremes

State Highs State Lows

Community

WunderPhotos

WunderBlog® & News

Nearby

Air Quality

  Air Quality AQ Index Pollutant
Not available.

Snow Depth

Station Depth Elevation

Earthquake Activity

City Distance Mag. Time & Date
Minimum magnitude displayed is 2.5.

Coastal Water Temperatures

Place Temperature

Stations

Nearby Weather Stations

Station Location Temp. Windchill Dew Point Humidity Wind Precip. Elev Updated Type
                   

Watches & Warnings

There are currently no watches in effect.